EGKK/LGW METAR and TAF weather

Enter ICAO airport designator
Station Type Date Time Source
EGKK METAR 2023/01/30 11:20 UTC NOAA

EGKK 301120Z 31010KT CAVOK 08/02 Q1025


Station Type Date Time Source
EGKK Decoded METAR 2023/01/30 11:20 UTC NOAA

London / Gatwick Airport, United Kingdom (EGKK) 51-09N 000-11W 0M
Jan 30, 2023 - 06:20 AM EST / 2023.01.30 1120 UTC
Wind: from the NW (310 degrees) at 12 MPH (10 KT):0
Visibility: greater than 7 mile(s):0
Temperature: 46 F (8 C)
Dew Point: 35 F (2 C)
Relative Humidity: 65%
Pressure (altimeter): 30.27 in. Hg (1025 hPa)
ob: EGKK 301120Z 31010KT CAVOK 08/02 Q1025
cycle: 11

Station Type Date Time Source
EGKK TAF 2023/01/30 12:11 UTC NOAA

TAF EGKK 301054Z 3012/3118 31010KT 9999 SCT045
BECMG 3023/3102 24008KT
TEMPO 3107/3114 BKN011 PROB40
TEMPO 3109/3112 8000 -RADZ BKN008
BECMG 3112/3115 30010KT

Example: see airport list